Terminal Aerodrome Forecast
Issued by NWS Melbourne, FL

Home | Current Version | Previous Version | Text Only | Print | Product List | Glossary On
Versions: 1 2 3 4 5 6 7 8 9 10 11 12 13
000
FTUS42 KMLB 301100
TAFMLB
TAF
KMLB 301126Z 3012/3112 30003KT P6SM BKN250
     FM301400 12007KT P6SM SCT035
     FM301700 11009KT P6SM VCTS SCT040CB BKN250
     FM310000 10006KT P6SM FEW050 BKN250
     FM310400 VRB03KT P6SM SCT250=

USA.gov is the U.S. government's official web portal to all federal, state and local government web resources and services.